sensor_id;sensor_type;location;lat;lon;timestamp;P1;durP1;ratioP1;P2;durP2;ratioP2
43744;SDS011;29359;53.048;8.732;2024-01-07T00:01:12;6.05;;;3.88;;
43744;SDS011;29359;53.048;8.732;2024-01-07T00:03:14;6.07;;;3.72;;
43744;SDS011;29359;53.048;8.732;2024-01-07T00:05:16;8.10;;;4.25;;
43744;SDS011;29359;53.048;8.732;2024-01-07T00:07:18;6.32;;;4.30;;
43744;SDS011;29359;53.048;8.732;2024-01-07T00:09:22;8.77;;;4.20;;
43744;SDS011;29359;53.048;8.732;2024-01-07T00:11:23;6.22;;;3.40;;
43744;SDS011;29359;53.048;8.732;2024-01-07T00:13:26;3.83;;;3.47;;
43744;SDS011;29359;53.048;8.732;2024-01-07T00:15:28;4.22;;;3.50;;
43744;SDS011;29359;53.048;8.732;2024-01-07T00:17:29;5.20;;;3.70;;
43744;SDS011;29359;53.048;8.732;2024-01-07T00:19:31;3.70;;;3.17;;
43744;SDS011;29359;53.048;8.732;2024-01-07T00:21:33;5.03;;;4.10;;
43744;SDS011;29359;53.048;8.732;2024-01-07T00:23:36;3.63;;;2.97;;
43744;SDS011;29359;53.048;8.732;2024-01-07T00:25:38;5.78;;;4.10;;
43744;SDS011;29359;53.048;8.732;2024-01-07T00:27:40;6.47;;;4.50;;
43744;SDS011;29359;53.048;8.732;2024-01-07T00:29:41;5.78;;;3.50;;
43744;SDS011;29359;53.048;8.732;2024-01-07T00:31:43;4.63;;;3.85;;
43744;SDS011;29359;53.048;8.732;2024-01-07T00:33:45;6.15;;;4.45;;
43744;SDS011;29359;53.048;8.732;2024-01-07T00:35:47;4.25;;;3.28;;
43744;SDS011;29359;53.048;8.732;2024-01-07T00:37:49;7.47;;;4.03;;
43744;SDS011;29359;53.048;8.732;2024-01-07T00:39:51;6.45;;;2.70;;
43744;SDS011;29359;53.048;8.732;2024-01-07T00:41:52;4.13;;;3.63;;
43744;SDS011;29359;53.048;8.732;2024-01-07T00:43:54;5.03;;;3.72;;
43744;SDS011;29359;53.048;8.732;2024-01-07T00:45:57;4.53;;;3.50;;
43744;SDS011;29359;53.048;8.732;2024-01-07T00:47:59;7.18;;;3.50;;
43744;SDS011;29359;53.048;8.732;2024-01-07T00:50:01;3.80;;;3.30;;
43744;SDS011;29359;53.048;8.732;2024-01-07T00:52:03;4.80;;;3.08;;
43744;SDS011;29359;53.048;8.732;2024-01-07T00:54:05;5.68;;;3.05;;
43744;SDS011;29359;53.048;8.732;2024-01-07T00:56:07;8.15;;;3.05;;
43744;SDS011;29359;53.048;8.732;2024-01-07T00:58:09;3.97;;;2.92;;
43744;SDS011;29359;53.048;8.732;2024-01-07T01:00:14;5.68;;;3.67;;
43744;SDS011;29359;53.048;8.732;2024-01-07T01:02:16;3.55;;;3.00;;
43744;SDS011;29359;53.048;8.732;2024-01-07T01:04:18;4.55;;;3.33;;
43744;SDS011;29359;53.048;8.732;2024-01-07T01:06:21;3.42;;;2.75;;
43744;SDS011;29359;53.048;8.732;2024-01-07T01:08:23;5.32;;;2.70;;
43744;SDS011;29359;53.048;8.732;2024-01-07T01:10:25;5.82;;;3.10;;
43744;SDS011;29359;53.048;8.732;2024-01-07T01:12:27;3.55;;;2.40;;
43744;SDS011;29359;53.048;8.732;2024-01-07T01:14:29;4.10;;;3.00;;
43744;SDS011;29359;53.048;8.732;2024-01-07T01:16:30;4.15;;;3.42;;
43744;SDS011;29359;53.048;8.732;2024-01-07T01:18:32;2.75;;;2.47;;
43744;SDS011;29359;53.048;8.732;2024-01-07T01:20:34;2.15;;;1.20;;
43744;SDS011;29359;53.048;8.732;2024-01-07T01:22:36;6.90;;;2.90;;
43744;SDS011;29359;53.048;8.732;2024-01-07T01:24:38;1.20;;;1.10;;
43744;SDS011;29359;53.048;8.732;2024-01-07T01:26:40;4.05;;;2.70;;
43744;SDS011;29359;53.048;8.732;2024-01-07T01:28:41;3.30;;;2.55;;
43744;SDS011;29359;53.048;8.732;2024-01-07T01:30:43;2.55;;;2.15;;
43744;SDS011;29359;53.048;8.732;2024-01-07T01:32:45;3.15;;;2.70;;
43744;SDS011;29359;53.048;8.732;2024-01-07T01:34:47;3.20;;;2.30;;
43744;SDS011;29359;53.048;8.732;2024-01-07T01:36:49;7.32;;;3.00;;
43744;SDS011;29359;53.048;8.732;2024-01-07T01:38:51;2.67;;;2.08;;
43744;SDS011;29359;53.048;8.732;2024-01-07T01:40:53;3.83;;;2.78;;
43744;SDS011;29359;53.048;8.732;2024-01-07T01:42:55;3.40;;;2.40;;
43744;SDS011;29359;53.048;8.732;2024-01-07T01:44:57;2.40;;;2.08;;
43744;SDS011;29359;53.048;8.732;2024-01-07T01:47:02;5.18;;;2.92;;
43744;SDS011;29359;53.048;8.732;2024-01-07T01:49:06;6.10;;;2.80;;
43744;SDS011;29359;53.048;8.732;2024-01-07T01:51:09;3.92;;;2.95;;
43744;SDS011;29359;53.048;8.732;2024-01-07T01:53:11;4.32;;;2.03;;
43744;SDS011;29359;53.048;8.732;2024-01-07T01:55:13;3.58;;;3.20;;
43744;SDS011;29359;53.048;8.732;2024-01-07T01:57:16;3.83;;;3.20;;
43744;SDS011;29359;53.048;8.732;2024-01-07T01:59:22;6.32;;;2.92;;
43744;SDS011;29359;53.048;8.732;2024-01-07T02:01:25;3.30;;;3.00;;
43744;SDS011;29359;53.048;8.732;2024-01-07T02:03:27;11.75;;;3.10;;
43744;SDS011;29359;53.048;8.732;2024-01-07T02:05:29;4.60;;;2.83;;
43744;SDS011;29359;53.048;8.732;2024-01-07T02:07:31;5.28;;;3.17;;
43744;SDS011;29359;53.048;8.732;2024-01-07T02:09:33;4.88;;;3.22;;
43744;SDS011;29359;53.048;8.732;2024-01-07T02:11:34;6.05;;;3.20;;
43744;SDS011;29359;53.048;8.732;2024-01-07T02:13:36;5.47;;;3.05;;
43744;SDS011;29359;53.048;8.732;2024-01-07T02:15:38;6.50;;;3.20;;
43744;SDS011;29359;53.048;8.732;2024-01-07T02:17:40;4.85;;;3.47;;
43744;SDS011;29359;53.048;8.732;2024-01-07T02:19:42;5.15;;;2.97;;
43744;SDS011;29359;53.048;8.732;2024-01-07T02:21:44;4.65;;;3.35;;
43744;SDS011;29359;53.048;8.732;2024-01-07T02:23:46;4.57;;;3.85;;
43744;SDS011;29359;53.048;8.732;2024-01-07T02:25:47;6.70;;;3.33;;
43744;SDS011;29359;53.048;8.732;2024-01-07T02:27:49;3.90;;;3.28;;
43744;SDS011;29359;53.048;8.732;2024-01-07T02:29:51;4.00;;;3.47;;
43744;SDS011;29359;53.048;8.732;2024-01-07T02:31:53;4.80;;;3.70;;
43744;SDS011;29359;53.048;8.732;2024-01-07T02:33:55;5.38;;;3.63;;
43744;SDS011;29359;53.048;8.732;2024-01-07T02:35:57;5.70;;;3.65;;
43744;SDS011;29359;53.048;8.732;2024-01-07T02:37:59;3.95;;;2.60;;
43744;SDS011;29359;53.048;8.732;2024-01-07T02:40:00;6.35;;;2.92;;
43744;SDS011;29359;53.048;8.732;2024-01-07T02:42:02;3.88;;;2.80;;
43744;SDS011;29359;53.048;8.732;2024-01-07T02:44:04;3.72;;;2.92;;
43744;SDS011;29359;53.048;8.732;2024-01-07T02:46:08;4.07;;;2.97;;
43744;SDS011;29359;53.048;8.732;2024-01-07T02:48:10;3.55;;;2.90;;
43744;SDS011;29359;53.048;8.732;2024-01-07T02:50:12;3.38;;;2.55;;
43744;SDS011;29359;53.048;8.732;2024-01-07T02:52:13;3.53;;;2.38;;
43744;SDS011;29359;53.048;8.732;2024-01-07T02:54:15;4.20;;;2.35;;
43744;SDS011;29359;53.048;8.732;2024-01-07T02:56:17;4.65;;;2.35;;
43744;SDS011;29359;53.048;8.732;2024-01-07T02:58:19;4.25;;;2.83;;
43744;SDS011;29359;53.048;8.732;2024-01-07T03:00:21;1.90;;;1.60;;
43744;SDS011;29359;53.048;8.732;2024-01-07T03:02:23;2.85;;;2.22;;
43744;SDS011;29359;53.048;8.732;2024-01-07T03:04:24;6.63;;;2.47;;
43744;SDS011;29359;53.048;8.732;2024-01-07T03:06:26;5.13;;;2.10;;
43744;SDS011;29359;53.048;8.732;2024-01-07T03:08:30;2.80;;;2.30;;
43744;SDS011;29359;53.048;8.732;2024-01-07T03:10:32;2.83;;;2.35;;
43744;SDS011;29359;53.048;8.732;2024-01-07T03:12:34;3.58;;;2.35;;
43744;SDS011;29359;53.048;8.732;2024-01-07T03:14:36;3.42;;;2.17;;
43744;SDS011;29359;53.048;8.732;2024-01-07T03:16:37;3.05;;;2.47;;
43744;SDS011;29359;53.048;8.732;2024-01-07T03:18:39;5.57;;;2.20;;
43744;SDS011;29359;53.048;8.732;2024-01-07T03:20:41;2.33;;;1.80;;
43744;SDS011;29359;53.048;8.732;2024-01-07T03:22:43;2.58;;;1.98;;
43744;SDS011;29359;53.048;8.732;2024-01-07T03:24:45;2.60;;;2.10;;
43744;SDS011;29359;53.048;8.732;2024-01-07T03:26:47;2.60;;;2.20;;
43744;SDS011;29359;53.048;8.732;2024-01-07T03:28:49;4.20;;;2.05;;
43744;SDS011;29359;53.048;8.732;2024-01-07T03:30:50;2.53;;;1.90;;
43744;SDS011;29359;53.048;8.732;2024-01-07T03:32:52;3.75;;;2.13;;
43744;SDS011;29359;53.048;8.732;2024-01-07T03:34:54;2.35;;;1.95;;
43744;SDS011;29359;53.048;8.732;2024-01-07T03:36:56;2.67;;;2.38;;
43744;SDS011;29359;53.048;8.732;2024-01-07T03:38:59;3.28;;;2.30;;
43744;SDS011;29359;53.048;8.732;2024-01-07T03:41:00;4.30;;;2.30;;
43744;SDS011;29359;53.048;8.732;2024-01-07T03:43:02;2.38;;;2.05;;
43744;SDS011;29359;53.048;8.732;2024-01-07T03:45:04;3.20;;;1.83;;
43744;SDS011;29359;53.048;8.732;2024-01-07T03:47:06;2.83;;;2.00;;
43744;SDS011;29359;53.048;8.732;2024-01-07T03:49:08;2.97;;;2.22;;
43744;SDS011;29359;53.048;8.732;2024-01-07T03:51:10;4.07;;;1.77;;
43744;SDS011;29359;53.048;8.732;2024-01-07T03:53:12;3.22;;;1.85;;
43744;SDS011;29359;53.048;8.732;2024-01-07T03:55:15;3.83;;;2.22;;
43744;SDS011;29359;53.048;8.732;2024-01-07T03:57:16;2.28;;;1.90;;
43744;SDS011;29359;53.048;8.732;2024-01-07T03:59:18;2.80;;;1.90;;
43744;SDS011;29359;53.048;8.732;2024-01-07T04:01:20;3.40;;;2.10;;
43744;SDS011;29359;53.048;8.732;2024-01-07T04:03:22;2.28;;;1.85;;
43744;SDS011;29359;53.048;8.732;2024-01-07T04:05:24;2.28;;;2.08;;
43744;SDS011;29359;53.048;8.732;2024-01-07T04:07:26;2.63;;;1.80;;
43744;SDS011;29359;53.048;8.732;2024-01-07T04:09:27;2.28;;;1.80;;
43744;SDS011;29359;53.048;8.732;2024-01-07T04:11:29;1.65;;;1.30;;
43744;SDS011;29359;53.048;8.732;2024-01-07T04:13:31;2.92;;;2.42;;
43744;SDS011;29359;53.048;8.732;2024-01-07T04:15:33;2.75;;;1.50;;
43744;SDS011;29359;53.048;8.732;2024-01-07T04:17:35;2.33;;;1.90;;
43744;SDS011;29359;53.048;8.732;2024-01-07T04:19:37;2.20;;;1.70;;
43744;SDS011;29359;53.048;8.732;2024-01-07T04:21:40;2.13;;;1.60;;
43744;SDS011;29359;53.048;8.732;2024-01-07T04:23:47;2.90;;;1.70;;
43744;SDS011;29359;53.048;8.732;2024-01-07T04:25:49;2.05;;;1.30;;
43744;SDS011;29359;53.048;8.732;2024-01-07T04:27:50;2.60;;;1.55;;
43744;SDS011;29359;53.048;8.732;2024-01-07T04:29:52;2.53;;;1.63;;
43744;SDS011;29359;53.048;8.732;2024-01-07T04:31:54;2.17;;;1.73;;
43744;SDS011;29359;53.048;8.732;2024-01-07T04:33:56;2.33;;;1.52;;
43744;SDS011;29359;53.048;8.732;2024-01-07T04:35:58;6.10;;;2.03;;
43744;SDS011;29359;53.048;8.732;2024-01-07T04:38:00;2.15;;;1.25;;
43744;SDS011;29359;53.048;8.732;2024-01-07T04:40:02;2.60;;;1.80;;
43744;SDS011;29359;53.048;8.732;2024-01-07T04:42:04;2.08;;;1.70;;
43744;SDS011;29359;53.048;8.732;2024-01-07T04:44:06;1.60;;;1.17;;
43744;SDS011;29359;53.048;8.732;2024-01-07T04:46:08;1.50;;;1.40;;
43744;SDS011;29359;53.048;8.732;2024-01-07T04:48:12;2.78;;;1.70;;
43744;SDS011;29359;53.048;8.732;2024-01-07T04:50:14;1.77;;;1.45;;
43744;SDS011;29359;53.048;8.732;2024-01-07T04:52:21;1.73;;;1.50;;
43744;SDS011;29359;53.048;8.732;2024-01-07T04:54:24;1.58;;;1.48;;
43744;SDS011;29359;53.048;8.732;2024-01-07T04:56:26;3.08;;;1.52;;
43744;SDS011;29359;53.048;8.732;2024-01-07T04:58:27;1.70;;;1.30;;
43744;SDS011;29359;53.048;8.732;2024-01-07T05:00:29;3.85;;;1.70;;
43744;SDS011;29359;53.048;8.732;2024-01-07T05:02:31;3.30;;;1.50;;
43744;SDS011;29359;53.048;8.732;2024-01-07T05:04:33;3.60;;;1.58;;
43744;SDS011;29359;53.048;8.732;2024-01-07T05:06:35;2.72;;;1.30;;
43744;SDS011;29359;53.048;8.732;2024-01-07T05:08:37;1.85;;;1.40;;
43744;SDS011;29359;53.048;8.732;2024-01-07T05:10:41;2.17;;;1.48;;
43744;SDS011;29359;53.048;8.732;2024-01-07T05:12:42;2.30;;;1.58;;
43744;SDS011;29359;53.048;8.732;2024-01-07T05:14:44;2.33;;;1.30;;
43744;SDS011;29359;53.048;8.732;2024-01-07T05:16:48;1.90;;;1.38;;
43744;SDS011;29359;53.048;8.732;2024-01-07T05:18:50;1.52;;;1.33;;
43744;SDS011;29359;53.048;8.732;2024-01-07T05:20:52;3.72;;;1.25;;
43744;SDS011;29359;53.048;8.732;2024-01-07T05:22:53;3.33;;;1.20;;
43744;SDS011;29359;53.048;8.732;2024-01-07T05:24:55;1.98;;;1.00;;
43744;SDS011;29359;53.048;8.732;2024-01-07T05:26:57;2.03;;;1.25;;
43744;SDS011;29359;53.048;8.732;2024-01-07T05:28:59;1.20;;;1.10;;
43744;SDS011;29359;53.048;8.732;2024-01-07T05:31:00;1.30;;;1.10;;
43744;SDS011;29359;53.048;8.732;2024-01-07T05:33:03;2.05;;;1.13;;
43744;SDS011;29359;53.048;8.732;2024-01-07T05:35:05;1.70;;;1.20;;
43744;SDS011;29359;53.048;8.732;2024-01-07T05:37:07;1.60;;;1.20;;
43744;SDS011;29359;53.048;8.732;2024-01-07T05:39:09;2.20;;;1.20;;
43744;SDS011;29359;53.048;8.732;2024-01-07T05:41:10;2.97;;;1.45;;
43744;SDS011;29359;53.048;8.732;2024-01-07T05:43:12;4.50;;;1.50;;
43744;SDS011;29359;53.048;8.732;2024-01-07T05:45:14;2.50;;;1.20;;
43744;SDS011;29359;53.048;8.732;2024-01-07T05:47:16;2.95;;;1.33;;
43744;SDS011;29359;53.048;8.732;2024-01-07T05:49:18;1.45;;;1.20;;
43744;SDS011;29359;53.048;8.732;2024-01-07T05:51:20;1.42;;;0.93;;
43744;SDS011;29359;53.048;8.732;2024-01-07T05:53:22;2.13;;;1.13;;
43744;SDS011;29359;53.048;8.732;2024-01-07T05:55:23;2.30;;;1.20;;
43744;SDS011;29359;53.048;8.732;2024-01-07T05:57:25;2.42;;;1.23;;
43744;SDS011;29359;53.048;8.732;2024-01-07T05:59:27;1.67;;;1.42;;
43744;SDS011;29359;53.048;8.732;2024-01-07T06:01:29;2.45;;;1.40;;
43744;SDS011;29359;53.048;8.732;2024-01-07T06:03:31;1.63;;;1.30;;
43744;SDS011;29359;53.048;8.732;2024-01-07T06:05:33;2.03;;;1.20;;
43744;SDS011;29359;53.048;8.732;2024-01-07T06:07:35;1.55;;;1.20;;
43744;SDS011;29359;53.048;8.732;2024-01-07T06:09:37;2.92;;;1.08;;
43744;SDS011;29359;53.048;8.732;2024-01-07T06:11:38;2.08;;;1.10;;
43744;SDS011;29359;53.048;8.732;2024-01-07T06:13:40;1.48;;;1.25;;
43744;SDS011;29359;53.048;8.732;2024-01-07T06:15:42;1.60;;;1.10;;
43744;SDS011;29359;53.048;8.732;2024-01-07T06:17:44;2.78;;;1.17;;
43744;SDS011;29359;53.048;8.732;2024-01-07T06:19:47;2.15;;;1.23;;
43744;SDS011;29359;53.048;8.732;2024-01-07T06:21:49;2.55;;;1.23;;
43744;SDS011;29359;53.048;8.732;2024-01-07T06:23:51;2.03;;;1.05;;
43744;SDS011;29359;53.048;8.732;2024-01-07T06:25:53;2.05;;;1.10;;
43744;SDS011;29359;53.048;8.732;2024-01-07T06:27:54;2.70;;;1.08;;
43744;SDS011;29359;53.048;8.732;2024-01-07T06:29:56;1.13;;;1.02;;
43744;SDS011;29359;53.048;8.732;2024-01-07T06:31:58;2.20;;;1.52;;
43744;SDS011;29359;53.048;8.732;2024-01-07T06:34:00;1.52;;;1.10;;
43744;SDS011;29359;53.048;8.732;2024-01-07T06:36:02;1.92;;;1.10;;
43744;SDS011;29359;53.048;8.732;2024-01-07T06:38:05;2.65;;;1.20;;
43744;SDS011;29359;53.048;8.732;2024-01-07T06:40:07;2.25;;;1.05;;
43744;SDS011;29359;53.048;8.732;2024-01-07T06:42:09;0.85;;;0.85;;
43744;SDS011;29359;53.048;8.732;2024-01-07T06:44:11;1.38;;;1.10;;
43744;SDS011;29359;53.048;8.732;2024-01-07T06:46:13;2.80;;;1.40;;
43744;SDS011;29359;53.048;8.732;2024-01-07T06:48:15;2.78;;;1.95;;
43744;SDS011;29359;53.048;8.732;2024-01-07T06:50:17;6.07;;;1.70;;
43744;SDS011;29359;53.048;8.732;2024-01-07T06:52:21;2.42;;;1.05;;
43744;SDS011;29359;53.048;8.732;2024-01-07T06:54:23;2.78;;;1.35;;
43744;SDS011;29359;53.048;8.732;2024-01-07T06:56:24;4.60;;;2.50;;
43744;SDS011;29359;53.048;8.732;2024-01-07T06:58:26;2.63;;;1.27;;
43744;SDS011;29359;53.048;8.732;2024-01-07T07:00:28;1.25;;;1.08;;
43744;SDS011;29359;53.048;8.732;2024-01-07T07:02:30;1.70;;;1.20;;
43744;SDS011;29359;53.048;8.732;2024-01-07T07:04:31;2.30;;;1.17;;
43744;SDS011;29359;53.048;8.732;2024-01-07T07:06:33;1.45;;;1.02;;
43744;SDS011;29359;53.048;8.732;2024-01-07T07:08:36;1.30;;;1.00;;
43744;SDS011;29359;53.048;8.732;2024-01-07T07:10:38;1.58;;;1.00;;
43744;SDS011;29359;53.048;8.732;2024-01-07T07:12:39;2.28;;;1.30;;
43744;SDS011;29359;53.048;8.732;2024-01-07T07:14:41;2.53;;;1.10;;
43744;SDS011;29359;53.048;8.732;2024-01-07T07:16:43;2.45;;;1.42;;
43744;SDS011;29359;53.048;8.732;2024-01-07T07:18:45;2.60;;;1.58;;
43744;SDS011;29359;53.048;8.732;2024-01-07T07:20:47;1.30;;;1.20;;
43744;SDS011;29359;53.048;8.732;2024-01-07T07:22:48;1.27;;;1.10;;
43744;SDS011;29359;53.048;8.732;2024-01-07T07:24:50;2.80;;;1.40;;
43744;SDS011;29359;53.048;8.732;2024-01-07T07:26:52;1.52;;;1.42;;
43744;SDS011;29359;53.048;8.732;2024-01-07T07:28:54;2.38;;;1.17;;
43744;SDS011;29359;53.048;8.732;2024-01-07T07:30:55;1.98;;;1.40;;
43744;SDS011;29359;53.048;8.732;2024-01-07T07:32:57;6.70;;;1.38;;
43744;SDS011;29359;53.048;8.732;2024-01-07T07:34:59;3.22;;;1.25;;
43744;SDS011;29359;53.048;8.732;2024-01-07T07:37:01;3.35;;;1.60;;
43744;SDS011;29359;53.048;8.732;2024-01-07T07:39:10;1.25;;;1.00;;
43744;SDS011;29359;53.048;8.732;2024-01-07T07:43:14;3.33;;;1.48;;
43744;SDS011;29359;53.048;8.732;2024-01-07T07:45:16;1.60;;;1.00;;
43744;SDS011;29359;53.048;8.732;2024-01-07T07:47:18;1.48;;;1.05;;
43744;SDS011;29359;53.048;8.732;2024-01-07T07:49:19;2.30;;;1.00;;
43744;SDS011;29359;53.048;8.732;2024-01-07T07:51:21;2.55;;;1.70;;
43744;SDS011;29359;53.048;8.732;2024-01-07T07:53:23;3.40;;;2.95;;
43744;SDS011;29359;53.048;8.732;2024-01-07T07:55:25;1.38;;;1.08;;
43744;SDS011;29359;53.048;8.732;2024-01-07T07:57:28;3.40;;;1.05;;
43744;SDS011;29359;53.048;8.732;2024-01-07T07:59:30;3.47;;;1.10;;
43744;SDS011;29359;53.048;8.732;2024-01-07T08:01:32;2.33;;;1.08;;
43744;SDS011;29359;53.048;8.732;2024-01-07T08:03:34;5.82;;;1.45;;
43744;SDS011;29359;53.048;8.732;2024-01-07T08:05:38;1.27;;;1.00;;
43744;SDS011;29359;53.048;8.732;2024-01-07T08:07:42;1.98;;;1.27;;
43744;SDS011;29359;53.048;8.732;2024-01-07T08:09:44;1.10;;;1.00;;
43744;SDS011;29359;53.048;8.732;2024-01-07T08:11:46;2.50;;;1.10;;
43744;SDS011;29359;53.048;8.732;2024-01-07T08:13:47;3.00;;;0.93;;
43744;SDS011;29359;53.048;8.732;2024-01-07T08:15:49;1.30;;;1.05;;
43744;SDS011;29359;53.048;8.732;2024-01-07T08:17:51;2.03;;;1.13;;
43744;SDS011;29359;53.048;8.732;2024-01-07T08:19:53;1.42;;;1.23;;
43744;SDS011;29359;53.048;8.732;2024-01-07T08:21:55;2.55;;;1.20;;
43744;SDS011;29359;53.048;8.732;2024-01-07T08:23:58;2.08;;;1.30;;
43744;SDS011;29359;53.048;8.732;2024-01-07T08:26:00;2.55;;;1.10;;
43744;SDS011;29359;53.048;8.732;2024-01-07T08:28:02;3.53;;;0.90;;
43744;SDS011;29359;53.048;8.732;2024-01-07T08:30:04;5.30;;;1.25;;
43744;SDS011;29359;53.048;8.732;2024-01-07T08:32:06;3.78;;;1.60;;
43744;SDS011;29359;53.048;8.732;2024-01-07T08:34:09;1.58;;;1.30;;
43744;SDS011;29359;53.048;8.732;2024-01-07T08:36:11;1.25;;;0.88;;
43744;SDS011;29359;53.048;8.732;2024-01-07T08:38:13;1.65;;;0.95;;
43744;SDS011;29359;53.048;8.732;2024-01-07T08:40:15;1.50;;;1.00;;
43744;SDS011;29359;53.048;8.732;2024-01-07T08:42:20;1.05;;;0.85;;
43744;SDS011;29359;53.048;8.732;2024-01-07T08:44:22;3.20;;;1.20;;
43744;SDS011;29359;53.048;8.732;2024-01-07T08:46:24;2.33;;;1.23;;
43744;SDS011;29359;53.048;8.732;2024-01-07T08:48:26;2.45;;;1.10;;
43744;SDS011;29359;53.048;8.732;2024-01-07T08:50:28;1.10;;;1.00;;
43744;SDS011;29359;53.048;8.732;2024-01-07T08:52:31;3.78;;;0.90;;
43744;SDS011;29359;53.048;8.732;2024-01-07T08:54:33;1.48;;;1.08;;
43744;SDS011;29359;53.048;8.732;2024-01-07T08:56:35;3.08;;;1.50;;
43744;SDS011;29359;53.048;8.732;2024-01-07T08:58:36;1.42;;;1.20;;
43744;SDS011;29359;53.048;8.732;2024-01-07T09:00:38;1.40;;;1.17;;
43744;SDS011;29359;53.048;8.732;2024-01-07T09:02:40;1.48;;;1.10;;
43744;SDS011;29359;53.048;8.732;2024-01-07T09:04:44;2.55;;;1.33;;
43744;SDS011;29359;53.048;8.732;2024-01-07T09:06:46;1.95;;;1.30;;
43744;SDS011;29359;53.048;8.732;2024-01-07T09:08:48;2.70;;;1.25;;
43744;SDS011;29359;53.048;8.732;2024-01-07T09:10:50;3.75;;;1.40;;
43744;SDS011;29359;53.048;8.732;2024-01-07T09:12:54;1.88;;;1.65;;
43744;SDS011;29359;53.048;8.732;2024-01-07T09:14:56;3.13;;;1.40;;
43744;SDS011;29359;53.048;8.732;2024-01-07T09:16:58;2.05;;;1.50;;
43744;SDS011;29359;53.048;8.732;2024-01-07T09:19:00;3.65;;;1.60;;
43744;SDS011;29359;53.048;8.732;2024-01-07T09:21:05;2.65;;;1.83;;
43744;SDS011;29359;53.048;8.732;2024-01-07T09:23:07;4.07;;;1.50;;
43744;SDS011;29359;53.048;8.732;2024-01-07T09:25:10;4.47;;;1.48;;
43744;SDS011;29359;53.048;8.732;2024-01-07T09:27:12;3.03;;;1.38;;
43744;SDS011;29359;53.048;8.732;2024-01-07T09:29:14;2.97;;;1.50;;
43744;SDS011;29359;53.048;8.732;2024-01-07T09:31:16;1.95;;;1.50;;
43744;SDS011;29359;53.048;8.732;2024-01-07T09:33:18;3.35;;;1.70;;
43744;SDS011;29359;53.048;8.732;2024-01-07T09:35:21;2.50;;;1.70;;
43744;SDS011;29359;53.048;8.732;2024-01-07T09:37:23;3.17;;;1.20;;
43744;SDS011;29359;53.048;8.732;2024-01-07T09:39:25;5.07;;;1.63;;
43744;SDS011;29359;53.048;8.732;2024-01-07T09:41:27;1.90;;;1.58;;
43744;SDS011;29359;53.048;8.732;2024-01-07T09:43:29;2.17;;;1.63;;
43744;SDS011;29359;53.048;8.732;2024-01-07T09:45:38;2.38;;;1.85;;
43744;SDS011;29359;53.048;8.732;2024-01-07T09:47:44;6.78;;;2.22;;
43744;SDS011;29359;53.048;8.732;2024-01-07T09:49:47;6.45;;;1.90;;
43744;SDS011;29359;53.048;8.732;2024-01-07T09:51:49;2.95;;;1.95;;
43744;SDS011;29359;53.048;8.732;2024-01-07T09:53:56;5.18;;;1.63;;
43744;SDS011;29359;53.048;8.732;2024-01-07T09:58:17;5.53;;;1.75;;
43744;SDS011;29359;53.048;8.732;2024-01-07T10:00:19;2.60;;;1.88;;
43744;SDS011;29359;53.048;8.732;2024-01-07T10:02:21;5.78;;;2.40;;
43744;SDS011;29359;53.048;8.732;2024-01-07T10:04:25;4.00;;;2.67;;
43744;SDS011;29359;53.048;8.732;2024-01-07T10:06:29;5.28;;;2.75;;
43744;SDS011;29359;53.048;8.732;2024-01-07T10:08:32;4.68;;;2.58;;
43744;SDS011;29359;53.048;8.732;2024-01-07T10:10:34;4.03;;;2.45;;
43744;SDS011;29359;53.048;8.732;2024-01-07T10:12:36;3.67;;;2.58;;
43744;SDS011;29359;53.048;8.732;2024-01-07T10:14:38;3.28;;;2.70;;
43744;SDS011;29359;53.048;8.732;2024-01-07T10:16:43;5.53;;;2.63;;
43744;SDS011;29359;53.048;8.732;2024-01-07T10:18:44;2.47;;;1.60;;
43744;SDS011;29359;53.048;8.732;2024-01-07T10:20:47;5.88;;;2.42;;
43744;SDS011;29359;53.048;8.732;2024-01-07T10:22:51;9.75;;;3.55;;
43744;SDS011;29359;53.048;8.732;2024-01-07T10:24:53;5.15;;;3.30;;
43744;SDS011;29359;53.048;8.732;2024-01-07T10:26:55;5.38;;;2.65;;
43744;SDS011;29359;53.048;8.732;2024-01-07T10:28:57;4.20;;;3.10;;
43744;SDS011;29359;53.048;8.732;2024-01-07T10:30:59;5.55;;;3.30;;
43744;SDS011;29359;53.048;8.732;2024-01-07T10:33:02;5.82;;;2.92;;
43744;SDS011;29359;53.048;8.732;2024-01-07T10:35:04;6.38;;;3.05;;
43744;SDS011;29359;53.048;8.732;2024-01-07T10:37:06;4.88;;;3.15;;
43744;SDS011;29359;53.048;8.732;2024-01-07T10:39:09;7.85;;;3.50;;
43744;SDS011;29359;53.048;8.732;2024-01-07T10:41:11;3.67;;;3.00;;
43744;SDS011;29359;53.048;8.732;2024-01-07T10:43:14;5.40;;;3.25;;
43744;SDS011;29359;53.048;8.732;2024-01-07T10:45:18;5.55;;;3.13;;
43744;SDS011;29359;53.048;8.732;2024-01-07T10:47:20;7.10;;;3.28;;
43744;SDS011;29359;53.048;8.732;2024-01-07T10:49:24;7.43;;;3.80;;
43744;SDS011;29359;53.048;8.732;2024-01-07T10:51:28;7.68;;;3.45;;
43744;SDS011;29359;53.048;8.732;2024-01-07T10:53:33;5.80;;;3.40;;
43744;SDS011;29359;53.048;8.732;2024-01-07T10:55:38;6.45;;;3.72;;
43744;SDS011;29359;53.048;8.732;2024-01-07T10:57:49;4.75;;;3.20;;
43744;SDS011;29359;53.048;8.732;2024-01-07T10:59:51;6.15;;;3.28;;
43744;SDS011;29359;53.048;8.732;2024-01-07T11:01:56;5.18;;;3.00;;
43744;SDS011;29359;53.048;8.732;2024-01-07T11:04:03;5.53;;;3.40;;
43744;SDS011;29359;53.048;8.732;2024-01-07T11:09:26;3.45;;;3.15;;
43744;SDS011;29359;53.048;8.732;2024-01-07T11:11:26;7.13;;;3.78;;
43744;SDS011;29359;53.048;8.732;2024-01-07T11:13:37;3.70;;;3.15;;
43744;SDS011;29359;53.048;8.732;2024-01-07T11:17:51;3.40;;;2.67;;
43744;SDS011;29359;53.048;8.732;2024-01-07T11:19:54;4.90;;;2.75;;
43744;SDS011;29359;53.048;8.732;2024-01-07T11:24:37;5.50;;;3.38;;
43744;SDS011;29359;53.048;8.732;2024-01-07T11:26:39;3.17;;;2.58;;
43744;SDS011;29359;53.048;8.732;2024-01-07T11:30:53;6.20;;;2.90;;
43744;SDS011;29359;53.048;8.732;2024-01-07T11:32:56;3.67;;;2.90;;
43744;SDS011;29359;53.048;8.732;2024-01-07T11:34:59;6.43;;;3.17;;
43744;SDS011;29359;53.048;8.732;2024-01-07T11:37:01;6.88;;;3.13;;
43744;SDS011;29359;53.048;8.732;2024-01-07T11:39:04;5.95;;;2.65;;
43744;SDS011;29359;53.048;8.732;2024-01-07T11:41:12;5.57;;;2.85;;
43744;SDS011;29359;53.048;8.732;2024-01-07T11:43:15;5.07;;;2.90;;
43744;SDS011;29359;53.048;8.732;2024-01-07T11:45:17;5.47;;;3.13;;
43744;SDS011;29359;53.048;8.732;2024-01-07T11:47:19;4.57;;;2.70;;
43744;SDS011;29359;53.048;8.732;2024-01-07T11:49:22;3.38;;;2.67;;
43744;SDS011;29359;53.048;8.732;2024-01-07T11:51:30;5.63;;;2.60;;
43744;SDS011;29359;53.048;8.732;2024-01-07T11:53:33;4.07;;;2.50;;
43744;SDS011;29359;53.048;8.732;2024-01-07T11:55:35;2.83;;;2.20;;
43744;SDS011;29359;53.048;8.732;2024-01-07T11:57:38;3.13;;;2.63;;
43744;SDS011;29359;53.048;8.732;2024-01-07T11:59:39;5.70;;;2.92;;
43744;SDS011;29359;53.048;8.732;2024-01-07T12:01:45;5.25;;;2.78;;
43744;SDS011;29359;53.048;8.732;2024-01-07T12:03:47;2.72;;;1.98;;
43744;SDS011;29359;53.048;8.732;2024-01-07T12:05:49;4.32;;;2.78;;
43744;SDS011;29359;53.048;8.732;2024-01-07T12:07:51;4.00;;;2.60;;
43744;SDS011;29359;53.048;8.732;2024-01-07T12:09:57;6.10;;;2.65;;
43744;SDS011;29359;53.048;8.732;2024-01-07T12:11:59;4.70;;;2.60;;
43744;SDS011;29359;53.048;8.732;2024-01-07T12:14:02;3.90;;;2.40;;
43744;SDS011;29359;53.048;8.732;2024-01-07T12:16:05;3.28;;;2.53;;
43744;SDS011;29359;53.048;8.732;2024-01-07T12:18:08;4.63;;;2.25;;
43744;SDS011;29359;53.048;8.732;2024-01-07T12:20:11;7.80;;;2.60;;
43744;SDS011;29359;53.048;8.732;2024-01-07T12:22:13;4.28;;;2.63;;
43744;SDS011;29359;53.048;8.732;2024-01-07T12:24:15;4.45;;;2.53;;
43744;SDS011;29359;53.048;8.732;2024-01-07T12:26:16;5.97;;;2.50;;
43744;SDS011;29359;53.048;8.732;2024-01-07T12:28:20;4.03;;;2.03;;
43744;SDS011;29359;53.048;8.732;2024-01-07T12:30:24;3.08;;;2.35;;
43744;SDS011;29359;53.048;8.732;2024-01-07T12:32:26;5.68;;;2.67;;